createdAt,value
2019-05-14T00:01:55.669Z,51.49
2019-05-14T00:04:31.414Z,51.08
2019-05-14T00:07:04.296Z,51.73
2019-05-14T00:09:37.684Z,51.13
2019-05-14T00:12:11.573Z,51.03
2019-05-14T00:14:45.063Z,51.05
2019-05-14T00:17:18.442Z,51.37
2019-05-14T00:20:05.815Z,51.44
2019-05-14T00:22:27.038Z,50.80
2019-05-14T00:25:01.123Z,50.91
2019-05-14T00:27:34.624Z,50.70
2019-05-14T00:30:08.573Z,51.32
2019-05-14T00:32:42.006Z,52.46
2019-05-14T00:35:15.418Z,53.43
2019-05-14T00:37:48.823Z,54.14
2019-05-14T00:40:22.336Z,54.39
2019-05-14T00:42:55.784Z,54.39
2019-05-14T00:45:31.118Z,55.09
2019-05-14T00:48:04.505Z,55.32
2019-05-14T00:50:37.932Z,55.35
2019-05-14T00:53:11.819Z,55.48
2019-05-14T00:55:45.210Z,55.70
2019-05-14T00:58:18.613Z,55.52
2019-05-14T01:00:52.680Z,55.15
2019-05-14T01:03:26.208Z,55.24
2019-05-14T01:05:59.632Z,55.08
2019-05-14T01:08:33.037Z,54.73
2019-05-14T01:11:06.445Z,54.45
2019-05-14T01:13:41.689Z,53.94
2019-05-14T01:16:15.020Z,53.48
2019-05-14T01:18:48.419Z,54.09
2019-05-14T01:21:22.062Z,53.37
2019-05-14T01:23:55.418Z,53.57
2019-05-14T01:26:30.975Z,53.81
2019-05-14T01:29:04.026Z,53.66
2019-05-14T01:31:37.453Z,54.60
2019-05-14T01:34:11.297Z,55.24
2019-05-14T01:36:44.936Z,54.08
2019-05-14T01:39:18.341Z,54.08
2019-05-14T01:41:51.850Z,53.86
2019-05-14T01:44:25.320Z,52.70
2019-05-14T01:46:58.731Z,53.50
2019-05-14T01:49:32.121Z,53.57
2019-05-14T01:52:05.636Z,54.81
2019-05-14T01:54:39.020Z,53.54
2019-05-14T01:57:12.563Z,54.63
2019-05-14T01:59:45.931Z,55.05
2019-05-14T02:02:19.337Z,55.12
2019-05-14T02:04:52.754Z,55.09
2019-05-14T02:07:26.198Z,54.97
2019-05-14T02:10:01.170Z,55.28
2019-05-14T02:12:34.947Z,54.28
2019-05-14T02:15:08.783Z,55.16
2019-05-14T02:17:42.190Z,55.50
2019-05-14T02:20:15.725Z,55.44
2019-05-14T02:22:49.125Z,55.83
2019-05-14T02:25:22.523Z,55.85
2019-05-14T02:27:55.937Z,56.60
2019-05-14T02:30:45.060Z,58.68
2019-05-14T02:33:04.495Z,59.21
2019-05-14T02:35:39.790Z,60.00
2019-05-14T02:38:13.032Z,59.04
2019-05-14T02:40:49.280Z,58.11
2019-05-14T02:43:21.732Z,58.28
2019-05-14T02:46:06.082Z,57.79
2019-05-14T02:48:30.302Z,58.37
2019-05-14T02:51:03.689Z,58.44
2019-05-14T02:53:39.103Z,58.23
2019-05-14T02:56:12.242Z,58.40
2019-05-14T02:58:45.683Z,57.51
2019-05-14T03:01:19.947Z,57.67
2019-05-14T03:03:53.736Z,57.71
2019-05-14T03:06:29.126Z,56.92
2019-05-14T03:09:02.476Z,56.42
2019-05-14T03:11:35.937Z,56.79
2019-05-14T03:14:09.437Z,56.87
2019-05-14T03:16:42.884Z,56.11
2019-05-14T03:19:19.235Z,56.03
2019-05-14T03:21:51.381Z,55.58
2019-05-14T03:24:24.885Z,55.93
2019-05-14T03:26:58.831Z,55.94
2019-05-14T03:29:32.334Z,55.47
2019-05-14T03:32:11.945Z,56.66
2019-05-14T03:34:43.701Z,55.78
2019-05-14T03:37:22.593Z,56.04
2019-05-14T03:39:51.363Z,56.78
2019-05-14T03:42:24.894Z,56.98
2019-05-14T03:44:59.774Z,60.04
2019-05-14T03:47:33.628Z,62.20
2019-05-14T03:50:10.161Z,64.01
2019-05-14T03:52:42.419Z,64.24
2019-05-14T03:55:15.954Z,64.88
2019-05-14T03:57:50.215Z,64.81
2019-05-14T04:00:44.433Z,64.65
2019-05-14T04:03:19.831Z,65.08
2019-05-14T04:05:53.754Z,64.41
2019-05-14T04:08:29.319Z,64.30
2019-05-14T04:11:02.883Z,64.61
2019-05-14T04:13:40.505Z,64.81
2019-05-14T04:16:14.875Z,63.82
2019-05-14T04:18:50.692Z,63.40
2019-05-14T04:21:25.473Z,62.60
2019-05-14T04:24:00.976Z,62.58
2019-05-14T04:26:53.413Z,62.59
2019-05-14T04:29:13.412Z,62.10
2019-05-14T04:31:50.135Z,62.28
2019-05-14T04:34:23.542Z,60.74
2019-05-14T04:36:59.294Z,60.50
2019-05-14T04:39:32.288Z,61.09
2019-05-14T04:42:05.683Z,59.01
2019-05-14T04:44:40.449Z,54.83
2019-05-14T04:47:27.843Z,55.64
2019-05-14T04:49:50.492Z,55.04
2019-05-14T04:52:24.278Z,53.67
2019-05-14T04:54:59.416Z,53.03
2019-05-14T04:57:32.858Z,52.23
2019-05-14T05:00:25.384Z,51.14
2019-05-14T05:02:59.994Z,51.00
2019-05-14T05:05:35.049Z,50.03
2019-05-14T05:08:09.091Z,51.23
2019-05-14T05:10:42.643Z,51.24
2019-05-14T05:13:18.448Z,52.01
2019-05-14T05:15:51.209Z,52.67
2019-05-14T05:18:24.620Z,52.07
2019-05-14T05:20:58.410Z,49.49
2019-05-14T05:23:31.930Z,50.22
2019-05-14T05:26:05.390Z,49.66
2019-05-14T05:28:39.283Z,48.41
2019-05-14T05:31:12.818Z,49.76
2019-05-14T05:33:48.748Z,50.29
2019-05-14T05:36:21.377Z,50.68
2019-05-14T05:38:54.774Z,51.41
2019-05-14T05:41:28.385Z,50.27
2019-05-14T05:44:01.796Z,49.00
2019-05-14T05:46:35.209Z,51.31
2019-05-14T05:49:08.625Z,53.62
2019-05-14T05:51:42.033Z,50.60
2019-05-14T05:54:15.466Z,52.93
2019-05-14T05:56:48.900Z,53.73
2019-05-14T05:59:22.345Z,53.74
2019-05-14T06:01:58.454Z,54.11
2019-05-14T06:04:31.253Z,52.13
2019-05-14T06:07:04.724Z,48.22
2019-05-14T06:09:38.396Z,46.64
2019-05-14T06:12:11.798Z,47.73
2019-05-14T06:14:45.235Z,44.97
2019-05-14T06:17:19.246Z,46.28
2019-05-14T06:19:52.752Z,47.06
2019-05-14T06:22:27.997Z,44.78
2019-05-14T06:25:01.519Z,44.45
2019-05-14T06:27:34.996Z,46.07
2019-05-14T06:30:09.573Z,48.47
2019-05-14T06:32:42.975Z,46.82
2019-05-14T06:35:19.174Z,44.38
2019-05-14T06:37:51.648Z,44.22
2019-05-14T06:40:25.147Z,43.49
2019-05-14T06:42:59.137Z,40.83
2019-05-14T06:45:32.700Z,42.15
2019-05-14T06:48:08.515Z,43.00
2019-05-14T06:50:41.326Z,42.78
2019-05-14T06:53:14.723Z,44.97
2019-05-14T06:55:48.482Z,46.11
2019-05-14T06:58:22.024Z,42.57
2019-05-14T07:00:55.458Z,43.09
2019-05-14T07:03:28.870Z,43.98
2019-05-14T07:06:02.278Z,43.11
2019-05-14T07:08:35.673Z,40.90
2019-05-14T07:11:09.072Z,40.13
2019-05-14T07:13:42.483Z,40.01
2019-05-14T07:16:15.939Z,40.65
2019-05-14T07:18:53.757Z,40.60
2019-05-14T07:21:24.539Z,39.69
2019-05-14T07:23:59.305Z,38.56
2019-05-14T07:26:32.935Z,41.14
2019-05-14T07:29:11.260Z,40.50
2019-05-14T07:31:41.564Z,38.88
2019-05-14T07:34:14.954Z,41.43
2019-05-14T07:36:49.065Z,39.23
2019-05-14T07:39:22.950Z,40.54
2019-05-14T07:41:58.719Z,37.83
2019-05-14T07:44:32.274Z,38.90
2019-05-14T07:47:07.989Z,40.56
2019-05-14T07:49:40.848Z,41.30
2019-05-14T07:52:14.304Z,41.42
2019-05-14T07:54:48.211Z,42.57
2019-05-14T07:57:21.799Z,42.29
2019-05-14T07:59:55.222Z,42.64
2019-05-14T08:02:29.107Z,40.62
2019-05-14T08:05:02.514Z,38.93
2019-05-14T08:07:35.932Z,38.04
2019-05-14T08:10:10.084Z,37.52
2019-05-14T08:12:43.564Z,36.60
2019-05-14T08:15:19.969Z,35.97
2019-05-14T08:17:52.361Z,37.65
2019-05-14T08:20:25.758Z,36.72
2019-05-14T08:22:59.250Z,34.11
2019-05-14T08:25:32.665Z,33.41
2019-05-14T08:28:08.092Z,34.28
2019-05-14T08:30:41.215Z,35.34
2019-05-14T08:33:14.631Z,33.61
2019-05-14T08:35:48.824Z,33.39
2019-05-14T08:38:22.614Z,34.09
2019-05-14T08:40:56.031Z,34.42
2019-05-14T08:43:29.469Z,32.94
2019-05-14T08:46:02.904Z,34.09
2019-05-14T08:48:38.625Z,34.46
2019-05-14T08:51:11.441Z,34.81
2019-05-14T08:53:44.849Z,34.73
2019-05-14T08:56:19.162Z,35.04
2019-05-14T08:58:52.851Z,34.36
2019-05-14T09:01:29.079Z,34.43
2019-05-14T09:04:01.368Z,36.01
2019-05-14T09:06:34.839Z,35.09
2019-05-14T09:09:09.657Z,35.09
2019-05-14T09:11:45.903Z,35.77
2019-05-14T09:14:18.856Z,37.01
2019-05-14T09:16:52.397Z,36.44
2019-05-14T09:19:28.573Z,36.13
2019-05-14T09:22:00.965Z,36.36
2019-05-14T09:24:34.481Z,35.47
2019-05-14T09:27:08.399Z,35.06
2019-05-14T09:29:42.050Z,35.15
2019-05-14T09:32:15.385Z,34.67
2019-05-14T09:34:48.947Z,34.03
2019-05-14T09:37:22.316Z,33.71
2019-05-14T09:39:58.276Z,33.16
2019-05-14T09:42:30.874Z,33.59
2019-05-14T09:45:10.537Z,32.64
2019-05-14T09:47:41.592Z,33.35
2019-05-14T09:50:19.388Z,34.44
2019-05-14T09:52:50.700Z,35.59
2019-05-14T09:55:24.133Z,33.55
2019-05-14T09:57:58.681Z,34.01
2019-05-14T10:00:32.265Z,33.35
2019-05-14T10:03:09.373Z,34.85
2019-05-14T10:05:40.820Z,35.13
2019-05-14T10:08:14.236Z,35.85
2019-05-14T10:10:48.818Z,32.74
2019-05-14T10:13:22.448Z,33.72
2019-05-14T10:15:55.896Z,33.38
2019-05-14T10:18:29.305Z,32.79
2019-05-14T10:21:03.123Z,32.02
2019-05-14T10:23:38.691Z,32.11
2019-05-14T10:26:11.652Z,32.13
2019-05-14T10:28:45.058Z,31.14
2019-05-14T10:31:18.938Z,32.32
2019-05-14T10:33:52.322Z,34.91
2019-05-14T10:36:25.752Z,35.77
2019-05-14T10:38:59.140Z,33.59
2019-05-14T10:41:32.560Z,33.93
2019-05-14T10:44:06.111Z,33.27
2019-05-14T10:46:39.556Z,33.57
2019-05-14T10:49:22.645Z,33.12
2019-05-14T10:51:48.245Z,33.03
2019-05-14T10:54:25.679Z,32.07
2019-05-14T10:56:59.085Z,31.62
2019-05-14T10:59:31.962Z,32.02
2019-05-14T11:02:05.482Z,31.93
2019-05-14T11:04:39.154Z,31.89
2019-05-14T11:07:12.694Z,32.04
2019-05-14T11:09:48.431Z,30.71
2019-05-14T11:12:21.329Z,30.54
2019-05-14T11:14:55.678Z,30.86
2019-05-14T11:17:29.320Z,30.77
2019-05-14T11:20:02.951Z,31.42
2019-05-14T11:22:36.358Z,32.13
2019-05-14T11:25:10.010Z,31.16
2019-05-14T11:27:43.490Z,30.20
2019-05-14T11:30:19.329Z,30.25
2019-05-14T11:32:52.574Z,30.45
2019-05-14T11:35:28.607Z,31.41
2019-05-14T11:38:01.143Z,31.15
2019-05-14T11:40:34.635Z,30.75
2019-05-14T11:43:08.431Z,30.25
2019-05-14T11:45:41.923Z,30.25
2019-05-14T11:48:15.351Z,29.60
2019-05-14T11:50:49.294Z,29.73
2019-05-14T11:53:22.887Z,29.21
2019-05-14T11:55:58.539Z,27.63
2019-05-14T11:58:31.458Z,27.63
2019-05-14T12:01:05.087Z,28.25
2019-05-14T12:03:39.436Z,28.56
2019-05-14T12:06:13.105Z,29.87
2019-05-14T12:08:46.473Z,29.38
2019-05-14T12:11:19.902Z,29.74
2019-05-14T12:13:53.321Z,29.10
2019-05-14T12:16:29.118Z,29.10
2019-05-14T12:19:01.858Z,28.99
2019-05-14T12:21:35.248Z,29.58
2019-05-14T12:24:13.738Z,29.57
2019-05-14T12:26:43.924Z,29.57
2019-05-14T12:29:17.351Z,28.83
2019-05-14T12:31:50.878Z,28.61
2019-05-14T12:34:24.228Z,28.86
2019-05-14T12:36:58.249Z,29.43
2019-05-14T12:39:31.647Z,29.62
2019-05-14T12:42:05.145Z,28.00
2019-05-14T12:44:40.870Z,28.10
2019-05-14T12:47:13.950Z,30.20
2019-05-14T12:49:48.324Z,30.41
2019-05-14T12:52:25.825Z,31.29
2019-05-14T12:54:59.779Z,29.44
2019-05-14T12:57:32.249Z,29.63
2019-05-14T13:00:08.947Z,30.09
2019-05-14T13:02:42.511Z,29.20
2019-05-14T13:05:18.340Z,30.00
2019-05-14T13:07:51.328Z,30.58
2019-05-14T13:10:24.752Z,30.58
2019-05-14T13:12:58.857Z,29.37
2019-05-14T13:15:32.356Z,29.48
2019-05-14T13:18:08.545Z,31.15
2019-05-14T13:20:40.976Z,31.15
2019-05-14T13:23:14.385Z,30.46
2019-05-14T13:25:47.815Z,28.79
2019-05-14T13:28:21.199Z,30.08
2019-05-14T13:30:54.625Z,30.18
2019-05-14T13:33:28.538Z,30.77
2019-05-14T13:36:02.168Z,32.43
2019-05-14T13:38:35.557Z,32.66
2019-05-14T13:41:08.984Z,31.64
2019-05-14T13:43:42.421Z,31.29
2019-05-14T13:46:15.897Z,30.73
2019-05-14T13:48:50.062Z,29.88
2019-05-14T13:51:23.697Z,29.99
2019-05-14T13:53:58.969Z,29.55
2019-05-14T13:56:32.263Z,29.69
2019-05-14T13:59:05.793Z,30.61
2019-05-14T14:01:39.174Z,30.72
2019-05-14T14:04:15.163Z,30.71
2019-05-14T14:06:49.083Z,31.59
2019-05-14T14:09:22.635Z,31.71
2019-05-14T14:11:56.062Z,30.64
2019-05-14T14:14:29.508Z,30.06
2019-05-14T14:17:02.918Z,28.30
2019-05-14T14:19:38.721Z,29.60
2019-05-14T14:22:11.531Z,28.00
2019-05-14T14:24:44.931Z,28.98
2019-05-14T14:27:19.646Z,30.91
2019-05-14T14:29:53.194Z,30.79
2019-05-14T14:32:26.591Z,30.31
2019-05-14T14:35:00.096Z,30.19
2019-05-14T14:37:33.583Z,30.99
2019-05-14T14:40:10.013Z,30.48
2019-05-14T14:42:42.633Z,30.10
2019-05-14T14:45:16.283Z,31.69
2019-05-14T14:47:49.894Z,31.04
2019-05-14T14:50:23.372Z,29.44
2019-05-14T14:52:59.609Z,29.41
2019-05-14T14:55:31.936Z,28.06
2019-05-14T14:58:05.352Z,28.32
2019-05-14T15:00:38.790Z,29.06
2019-05-14T15:03:12.192Z,27.53
2019-05-14T15:05:45.659Z,28.32
2019-05-14T15:08:20.086Z,29.12
2019-05-14T15:10:53.767Z,29.86
2019-05-14T15:13:27.258Z,30.01
2019-05-14T15:16:01.211Z,29.45
2019-05-14T15:18:38.497Z,30.06
2019-05-14T15:21:10.738Z,30.19
2019-05-14T15:24:01.769Z,30.41
2019-05-14T15:26:19.578Z,29.21
2019-05-14T15:28:53.205Z,29.08
2019-05-14T15:31:29.243Z,29.86
2019-05-14T15:34:02.734Z,30.15
2019-05-14T15:36:41.285Z,30.18
2019-05-14T15:39:11.373Z,30.58
2019-05-14T15:41:44.850Z,30.59
2019-05-14T15:44:19.579Z,27.93
2019-05-14T15:46:53.273Z,26.88
2019-05-14T15:49:28.391Z,26.87
2019-05-14T15:52:01.869Z,26.17
2019-05-14T15:54:45.602Z,25.58
2019-05-14T15:57:10.423Z,25.58
2019-05-14T15:59:43.835Z,28.03
2019-05-14T16:02:20.132Z,30.02
2019-05-14T16:04:52.442Z,30.70
2019-05-14T16:07:25.875Z,31.15
2019-05-14T16:10:00.876Z,31.62
2019-05-14T16:12:34.607Z,31.93
2019-05-14T16:15:09.063Z,31.49
2019-05-14T16:18:00.295Z,29.86
2019-05-14T16:20:18.785Z,28.77
2019-05-14T16:22:52.499Z,27.98
2019-05-14T16:25:25.846Z,26.68
2019-05-14T16:27:59.573Z,26.32
2019-05-14T16:30:33.059Z,26.26
2019-05-14T16:33:09.134Z,24.96
2019-05-14T16:35:41.707Z,28.21
2019-05-14T16:38:15.101Z,29.84
2019-05-14T16:40:49.007Z,30.03
2019-05-14T16:43:22.539Z,30.45
2019-05-14T16:45:55.926Z,30.67
2019-05-14T16:48:29.737Z,30.46
2019-05-14T16:51:03.141Z,28.36
2019-05-14T16:53:37.970Z,27.39
2019-05-14T16:56:11.621Z,26.09
2019-05-14T16:58:45.141Z,26.87
2019-05-14T17:01:19.360Z,28.53
2019-05-14T17:03:52.845Z,29.53
2019-05-14T17:06:29.103Z,29.92
2019-05-14T17:09:01.485Z,30.07
2019-05-14T17:11:38.891Z,29.97
2019-05-14T17:14:10.130Z,27.74
2019-05-14T17:16:43.630Z,27.80
2019-05-14T17:19:18.776Z,27.60
2019-05-14T17:21:52.396Z,28.82
2019-05-14T17:24:28.896Z,27.50
2019-05-14T17:27:01.132Z,27.80
2019-05-14T17:29:34.625Z,28.44
2019-05-14T17:32:08.106Z,29.14
2019-05-14T17:34:41.525Z,29.70
2019-05-14T17:37:14.923Z,29.98
2019-05-14T17:39:48.956Z,30.35
2019-05-14T17:42:22.507Z,30.56
2019-05-14T17:44:55.939Z,30.29
2019-05-14T17:47:29.338Z,30.93
2019-05-14T17:50:02.942Z,30.76
2019-05-14T17:52:41.636Z,31.04
2019-05-14T17:55:12.488Z,31.31
2019-05-14T17:57:55.083Z,31.27
2019-05-14T18:00:21.355Z,31.83
2019-05-14T18:02:54.778Z,31.86
2019-05-14T18:05:29.090Z,32.17
2019-05-14T18:08:02.714Z,32.51
2019-05-14T18:10:36.129Z,32.61
2019-05-14T18:13:09.657Z,32.72
2019-05-14T18:15:43.202Z,33.24
2019-05-14T18:18:18.482Z,33.53
2019-05-14T18:20:51.856Z,34.39
2019-05-14T18:23:25.256Z,34.55
2019-05-14T18:26:08.062Z,34.54
2019-05-14T18:28:34.168Z,34.35
2019-05-14T18:31:09.509Z,35.12
2019-05-14T18:33:42.772Z,35.16
2019-05-14T18:36:18.863Z,35.56
2019-05-14T18:38:51.343Z,35.56
2019-05-14T18:41:24.770Z,35.95
2019-05-14T18:43:58.898Z,36.85
2019-05-14T18:46:33.079Z,37.36
2019-05-14T18:49:08.760Z,36.62
2019-05-14T18:51:41.805Z,36.37
2019-05-14T18:54:15.289Z,36.40
2019-05-14T18:56:49.012Z,36.27
2019-05-14T18:59:22.550Z,36.53
2019-05-14T19:01:56.023Z,36.76
2019-05-14T19:04:29.522Z,36.94
2019-05-14T19:07:02.962Z,37.51
2019-05-14T19:09:38.679Z,37.72
2019-05-14T19:12:11.613Z,38.41
2019-05-14T19:14:45.017Z,38.58
2019-05-14T19:17:18.885Z,39.06
2019-05-14T19:19:52.316Z,39.85
2019-05-14T19:22:25.779Z,39.96
2019-05-14T19:24:59.178Z,40.30
2019-05-14T19:27:32.670Z,40.46
2019-05-14T19:30:08.400Z,40.78
2019-05-14T19:32:42.047Z,41.06
2019-05-14T19:35:15.467Z,41.44
2019-05-14T19:37:48.942Z,41.53
2019-05-14T19:40:22.333Z,41.59
2019-05-14T19:42:55.748Z,41.87
2019-05-14T19:45:29.433Z,42.30
2019-05-14T19:48:02.881Z,41.06
2019-05-14T19:50:38.521Z,42.08
2019-05-14T19:53:11.823Z,42.62
2019-05-14T19:55:45.226Z,42.52
2019-05-14T19:58:20.053Z,42.44
2019-05-14T20:00:54.036Z,43.16
2019-05-14T20:03:29.131Z,42.90
2019-05-14T20:06:03.444Z,43.14
2019-05-14T20:08:38.385Z,43.07
2019-05-14T20:11:12.152Z,43.33
2019-05-14T20:13:45.588Z,42.89
2019-05-14T20:16:19.087Z,42.92
2019-05-14T20:18:52.551Z,43.16
2019-05-14T20:21:28.097Z,43.68
2019-05-14T20:24:01.155Z,44.41
2019-05-14T20:26:34.565Z,45.36
2019-05-14T20:29:08.740Z,45.82
2019-05-14T20:31:42.457Z,46.38
2019-05-14T20:34:15.881Z,46.40
2019-05-14T20:36:49.270Z,46.19
2019-05-14T20:39:22.700Z,46.68
2019-05-14T20:41:58.385Z,46.63
2019-05-14T20:44:31.301Z,46.58
2019-05-14T20:47:04.786Z,46.88
2019-05-14T20:49:38.241Z,46.74
2019-05-14T20:52:11.697Z,46.75
2019-05-14T20:54:45.166Z,46.89
2019-05-14T20:57:24.511Z,47.42
2019-05-14T20:59:53.730Z,47.45
2019-05-14T21:02:29.305Z,47.98
2019-05-14T21:05:04.713Z,48.15
2019-05-14T21:07:38.525Z,48.51
2019-05-14T21:10:13.183Z,48.70
2019-05-14T21:12:48.757Z,48.73
2019-05-14T21:15:21.771Z,48.98
2019-05-14T21:17:55.255Z,49.12
2019-05-14T21:20:28.613Z,49.38
2019-05-14T21:23:02.030Z,49.47
2019-05-14T21:25:35.527Z,49.72
2019-05-14T21:28:09.430Z,49.87
2019-05-14T21:30:43.370Z,50.09
2019-05-14T21:33:16.777Z,50.49
2019-05-14T21:35:50.274Z,50.73
2019-05-14T21:38:23.704Z,50.79
2019-05-14T21:40:58.269Z,50.78
2019-05-14T21:43:31.893Z,50.93
2019-05-14T21:46:05.315Z,51.17
2019-05-14T21:48:38.949Z,52.10
2019-05-14T21:51:12.323Z,51.47
2019-05-14T21:53:48.094Z,51.68
2019-05-14T21:56:21.776Z,51.56
2019-05-14T21:58:55.411Z,51.39
2019-05-14T22:01:30.972Z,51.28
2019-05-14T22:04:04.377Z,51.40
2019-05-14T22:06:41.143Z,51.18
2019-05-14T22:09:13.140Z,51.53
2019-05-14T22:11:48.473Z,51.54
2019-05-14T22:14:21.719Z,51.88
2019-05-14T22:16:55.155Z,52.09
2019-05-14T22:19:28.752Z,52.14
2019-05-14T22:22:02.106Z,52.22
2019-05-14T22:24:35.502Z,52.53
2019-05-14T22:27:09.516Z,52.60
2019-05-14T22:29:43.018Z,52.61
2019-05-14T22:32:16.427Z,52.54
2019-05-14T22:34:49.814Z,53.14
2019-05-14T22:37:23.217Z,53.29
2019-05-14T22:39:58.905Z,53.28
2019-05-14T22:42:31.753Z,52.99
2019-05-14T22:45:09.305Z,52.99
2019-05-14T22:47:42.902Z,54.73
2019-05-14T22:50:18.336Z,57.03
2019-05-14T22:52:51.575Z,58.61
2019-05-14T22:55:24.974Z,59.08
2019-05-14T22:57:59.532Z,60.36
2019-05-14T23:00:33.031Z,60.57
2019-05-14T23:03:06.453Z,60.73
2019-05-14T23:05:39.837Z,60.48
2019-05-14T23:08:13.287Z,60.38
2019-05-14T23:10:49.002Z,61.13
2019-05-14T23:13:21.802Z,60.40
2019-05-14T23:15:55.198Z,60.67
2019-05-14T23:18:28.819Z,60.75
2019-05-14T23:21:02.273Z,59.81
2019-05-14T23:23:35.947Z,57.88
2019-05-14T23:26:09.365Z,58.70
2019-05-14T23:28:45.921Z,58.38
2019-05-14T23:31:17.971Z,59.68
2019-05-14T23:33:51.929Z,59.95
2019-05-14T23:36:25.358Z,60.44
2019-05-14T23:38:59.308Z,61.01
2019-05-14T23:41:32.698Z,61.37
2019-05-14T23:44:08.164Z,60.93
2019-05-14T23:46:41.250Z,60.86
2019-05-14T23:49:14.676Z,60.60
2019-05-14T23:51:48.091Z,60.57
2019-05-14T23:54:21.509Z,60.39
2019-05-14T23:56:54.926Z,60.93
2019-05-14T23:59:29.389Z,61.80
